Time;durP1;ratioP1;P1;durP2;ratioP2;P2;SDS_P1;SDS_P2;PMS_P1;PMS_P2;Temp;Humidity;BMP_temperature;BMP_pressure;BME280_temperature;BME280_humidity;BME280_pressure;Samples;Min_cycle;Max_cycle;Signal;HPM_P1;HPM_P2
2022/02/07 00:02:24;;;;;;;;;2.00;1.00;;;;;10.62;66.51;101423.16;5098685;27;46742;-77
2022/02/07 00:04:49;;;;;;;;;0.00;0.00;;;;;10.60;66.20;101438.06;5096994;27;45399;-76
2022/02/07 00:07:18;;;;;;;;;0.00;0.00;;;;;10.57;65.28;101433.63;5097517;27;45353;-78
2022/02/07 00:09:43;;;;;;;;;2.33;1.00;;;;;10.52;65.81;101444.94;5080958;27;45531;-78
2022/02/07 00:12:09;;;;;;;;;0.00;0.00;;;;;10.61;64.99;101461.00;5080110;27;46532;-78
2022/02/07 00:14:35;;;;;;;;;3.00;0.00;;;;;10.62;65.59;101468.06;5092170;27;45300;-77
2022/02/07 00:17:00;;;;;;;;;1.67;1.00;;;;;10.60;65.19;101464.47;5059282;27;59239;-77
2022/02/07 00:19:27;;;;;;;;;2.00;0.33;;;;;10.56;64.38;101462.66;5098784;27;45140;-77
2022/02/07 00:21:53;;;;;;;;;1.00;1.00;;;;;10.53;64.96;101463.47;5096861;27;46277;-78
2022/02/07 00:24:19;;;;;;;;;5.00;0.67;;;;;10.62;65.40;101479.50;5079679;27;45312;-77
2022/02/07 00:26:44;;;;;;;;;1.33;1.00;;;;;10.59;64.89;101479.44;5098775;27;45283;-78
2022/02/07 00:29:11;;;;;;;;;1.00;1.00;;;;;10.49;65.04;101475.72;5097165;27;45357;-77
2022/02/07 00:31:36;;;;;;;;;2.00;1.00;;;;;10.52;64.80;101490.72;5096811;27;46669;-78
2022/02/07 00:34:02;;;;;;;;;2.00;0.00;;;;;10.53;65.36;101499.53;5096350;27;54932;-77
2022/02/07 00:36:28;;;;;;;;;1.67;0.33;;;;;10.54;65.21;101503.94;5096796;27;48948;-77
2022/02/07 00:38:58;;;;;;;;;0.00;0.00;;;;;10.51;65.04;101506.53;5097475;27;45602;-77
2022/02/07 00:41:34;;;;;;;;;2.00;0.00;;;;;10.51;65.06;101506.53;5098135;27;46651;-78
2022/02/07 00:44:09;;;;;;;;;3.33;0.00;;;;;10.42;64.80;101497.53;5076206;27;45378;-77
2022/02/07 00:46:39;;;;;;;;;2.00;1.00;;;;;10.48;65.47;101523.19;5076864;27;45460;-75
2022/02/07 00:49:04;;;;;;;;;2.67;1.67;;;;;10.43;65.18;101531.00;5085255;27;45564;-77
2022/02/07 00:51:30;;;;;;;;;3.00;0.00;;;;;10.38;64.07;101542.31;5079773;27;46291;-77
2022/02/07 00:53:55;;;;;;;;;4.33;1.00;;;;;10.34;62.77;101551.94;5098247;27;45191;-78
2022/02/07 00:56:21;;;;;;;;;1.00;0.00;;;;;10.35;62.82;101564.28;5096276;27;56244;-77
2022/02/07 00:58:46;;;;;;;;;4.00;0.00;;;;;10.31;61.99;101572.06;5062308;27;54705;-77
2022/02/07 01:01:11;;;;;;;;;2.00;1.00;;;;;10.25;63.41;101591.31;5113918;27;46247;-78
2022/02/07 01:03:37;;;;;;;;;2.00;0.00;;;;;10.14;62.59;101585.72;5065453;27;60395;-77
2022/02/07 01:06:02;;;;;;;;;2.00;0.00;;;;;10.18;61.92;101605.19;5109531;27;51362;-76
2022/02/07 01:09:09;;;;;;;;;1.67;0.67;;;;;10.12;59.79;101603.28;5097611;27;45553;-77
2022/02/07 01:55:03;;;;;;;;;2.00;0.00;;;;;9.67;59.07;101761.19;5070277;27;45690;-76
2022/02/07 01:57:28;;;;;;;;;2.67;1.00;;;;;9.65;59.81;101771.69;5099813;27;45401;-76
2022/02/07 01:59:54;;;;;;;;;0.33;0.33;;;;;9.66;59.44;101772.56;5100451;27;53886;-76
2022/02/07 02:02:19;;;;;;;;;1.00;0.00;;;;;9.54;59.63;101759.94;5100339;27;45407;-77
2022/02/07 02:04:45;;;;;;;;;1.67;1.00;;;;;9.56;59.67;101763.50;5098875;27;58765;-76
2022/02/07 02:07:10;;;;;;;;;2.67;0.00;;;;;9.56;59.49;101786.34;5099318;27;45461;-76
2022/02/07 02:09:36;;;;;;;;;0.00;0.00;;;;;9.53;59.28;101787.13;5081861;27;45380;-77
2022/02/07 02:12:03;;;;;;;;;0.33;0.00;;;;;9.54;59.12;101788.03;5095620;27;45376;-78
2022/02/07 02:14:59;;;;;;;;;1.67;0.67;;;;;9.49;59.33;101787.91;5077844;28;47714;-77
2022/02/07 02:46:34;;;;;;;;;3.00;0.00;;;;;9.36;58.98;101877.97;5099980;27;46383;-76
2022/02/07 02:49:02;;;;;;;;;3.00;0.33;;;;;9.29;59.21;101889.16;5098675;27;45406;-78
2022/02/07 02:51:28;;;;;;;;;1.67;0.67;;;;;9.26;59.03;101902.22;5082292;27;45347;-77
2022/02/07 02:53:53;;;;;;;;;2.67;0.00;;;;;9.27;58.76;101890.81;5099161;27;45478;-77
2022/02/07 02:56:19;;;;;;;;;4.00;0.00;;;;;9.22;59.22;101895.06;5097656;27;63664;-76
2022/02/07 02:58:44;;;;;;;;;2.00;1.00;;;;;9.22;58.89;101903.88;5098046;27;49379;-79
2022/02/07 03:01:09;;;;;;;;;0.00;0.00;;;;;9.20;59.47;101895.00;5090639;27;50513;-77
2022/02/07 03:03:35;;;;;;;;;1.00;0.00;;;;;9.20;58.82;101902.91;5077783;27;51742;-80
2022/02/07 03:06:00;;;;;;;;;3.00;0.00;;;;;9.16;58.61;101898.38;5090345;27;61525;-77
2022/02/07 03:08:26;;;;;;;;;1.33;0.00;;;;;9.14;58.66;101889.53;5098312;27;45204;-78
2022/02/07 03:13:32;;;;;;;;;7.33;1.00;;;;;9.10;59.12;101898.16;5098714;27;45511;-76
2022/02/07 03:18:41;;;;;;;;;1.00;1.00;;;;;9.13;59.16;101903.56;5088691;27;45370;-78
2022/02/07 03:21:06;;;;;;;;;1.00;1.00;;;;;9.14;59.11;101915.88;5097559;27;54838;-76
2022/02/07 03:23:32;;;;;;;;;0.33;0.00;;;;;9.12;59.40;101929.00;5070674;28;54789;-76
2022/02/07 03:25:57;;;;;;;;;0.00;0.00;;;;;9.11;59.60;101931.59;5076898;27;45967;-77
2022/02/07 03:28:24;;;;;;;;;2.00;0.00;;;;;9.15;59.25;101944.00;5098116;27;45313;-75
2022/02/07 03:30:49;;;;;;;;;4.33;0.00;;;;;9.14;59.65;101937.84;5098384;27;45247;-77
2022/02/07 03:33:14;;;;;;;;;2.00;0.00;;;;;9.11;59.21;101937.75;5083685;27;51990;-77
2022/02/07 03:35:40;;;;;;;;;1.67;1.67;;;;;9.12;59.44;101946.56;5065891;27;47523;-76
2022/02/07 03:38:06;;;;;;;;;2.00;1.00;;;;;9.09;59.20;101946.44;5082130;27;45230;-77
2022/02/07 03:40:32;;;;;;;;;1.33;0.33;;;;;9.09;59.15;101962.25;5081073;27;45309;-77
2022/02/07 03:42:57;;;;;;;;;3.00;0.00;;;;;9.07;59.48;101963.94;5080802;27;45194;-76
2022/02/07 03:45:23;;;;;;;;;1.33;0.67;;;;;9.08;59.31;101969.25;5097415;27;45822;-77
2022/02/07 03:47:48;;;;;;;;;3.33;0.00;;;;;9.02;59.19;101962.88;5097395;27;45358;-76
2022/02/07 03:50:14;;;;;;;;;0.67;0.00;;;;;9.00;59.16;101968.13;5097574;27;50300;-78
2022/02/07 03:52:39;;;;;;;;;3.00;0.00;;;;;9.01;59.37;101976.91;5097270;27;51186;-76
2022/02/07 03:55:05;;;;;;;;;1.00;0.00;;;;;8.88;59.35;101970.28;5099123;27;46330;-77
2022/02/07 03:57:30;;;;;;;;;2.67;0.00;;;;;8.98;59.57;101997.84;5097013;27;45249;-76
2022/02/07 03:59:56;;;;;;;;;4.67;1.00;;;;;8.84;59.62;101989.44;5054132;28;56533;-76
2022/02/07 04:02:21;;;;;;;;;2.00;0.00;;;;;8.90;59.39;101997.59;5077471;28;45347;-77
2022/02/07 04:04:54;;;;;;;;;2.33;0.00;;;;;8.79;58.86;101983.09;5074203;28;48230;-77
2022/02/07 04:07:20;;;;;;;;;4.33;1.00;;;;;8.87;59.52;102011.53;5077155;28;46111;-79
2022/02/07 04:09:50;;;;;;;;;1.67;1.67;;;;;8.84;59.62;102019.34;5081485;27;45321;-78
2022/02/07 04:12:20;;;;;;;;;2.00;1.00;;;;;8.84;59.39;102026.31;5099125;27;45374;-77
2022/02/07 04:14:45;;;;;;;;;2.00;1.00;;;;;8.81;59.46;102032.38;5095291;27;46909;-77
2022/02/07 04:17:16;;;;;;;;;4.33;0.00;;;;;8.80;59.72;102045.50;5096991;27;49985;-78
2022/02/07 04:19:41;;;;;;;;;0.00;0.00;;;;;8.76;59.48;102049.75;5094597;27;45465;-78
2022/02/07 04:22:08;;;;;;;;;5.67;2.00;;;;;8.76;59.72;102043.59;5076531;27;53745;-78
2022/02/07 04:24:34;;;;;;;;;2.00;0.00;;;;;8.66;59.89;102031.78;5075689;28;48281;-79
2022/02/07 04:26:59;;;;;;;;;3.00;0.00;;;;;8.75;59.79;102058.47;5076592;28;45339;-77
2022/02/07 04:29:24;;;;;;;;;6.67;0.00;;;;;8.71;59.72;102060.94;5093858;27;53789;-78
2022/02/07 04:31:50;;;;;;;;;2.00;0.00;;;;;8.73;59.75;102070.69;5076920;28;45521;-78
2022/02/07 04:34:15;;;;;;;;;4.00;0.00;;;;;8.75;59.71;102086.56;5076438;28;46259;-76
2022/02/07 04:36:43;;;;;;;;;1.33;0.00;;;;;8.74;59.71;102074.25;5083220;27;45341;-78
2022/02/07 04:39:08;;;;;;;;;3.00;1.00;;;;;8.57;59.60;102057.75;5098491;27;45452;-77
2022/02/07 04:41:34;;;;;;;;;2.00;0.00;;;;;8.69;59.34;102079.31;5097709;27;46188;-76
2022/02/07 04:44:04;;;;;;;;;2.67;0.67;;;;;8.63;59.79;102079.09;5054442;27;47692;-76
2022/02/07 04:51:47;;;;;;;;;3.00;1.00;;;;;8.64;60.04;102086.13;5077099;28;45304;-77
2022/02/07 04:59:27;;;;;;;;;6.50;1.00;;;;;8.62;60.05;102098.31;5076695;28;45370;-76
2022/02/07 05:02:00;;;;;;;;;4.75;1.00;;;;;8.60;60.23;102103.53;5077655;27;45461;-76
2022/02/07 05:04:35;;;;;;;;;0.00;0.00;;;;;8.58;60.19;102101.69;5089727;27;46758;-76
2022/02/07 05:15:12;;;;;;;;;5.50;1.00;;;;;8.48;60.27;102137.28;5092049;27;45417;-78
2022/02/07 05:17:39;;;;;;;;;6.25;2.00;;;;;8.51;60.25;102147.03;5097236;27;45271;-76
2022/02/07 05:20:06;;;;;;;;;5.67;1.00;;;;;8.46;60.30;102136.31;5096648;27;45454;-76
2022/02/07 05:22:31;;;;;;;;;3.75;1.00;;;;;8.37;60.17;102134.22;5097309;27;45703;-76
2022/02/07 05:24:57;;;;;;;;;2.50;1.00;;;;;8.42;60.10;102147.56;5065852;27;46742;-77
2022/02/07 05:27:22;;;;;;;;;5.00;1.00;;;;;8.31;60.51;102138.28;5096055;27;45328;-76
2022/02/07 05:29:48;;;;;;;;;2.25;1.75;;;;;8.43;60.20;102148.47;5064391;27;45525;-75
2022/02/07 05:32:13;;;;;;;;;2.75;1.25;;;;;8.43;60.28;102157.25;5086012;27;45501;-76
2022/02/07 05:34:39;;;;;;;;;6.25;1.50;;;;;8.33;60.44;102149.78;5092164;27;59758;-76
2022/02/07 05:37:04;;;;;;;;;2.50;1.00;;;;;8.40;60.71;102160.66;5075944;27;45497;-76
2022/02/07 05:39:34;;;;;;;;;9.00;1.50;;;;;8.31;60.58;102152.38;5075775;28;45576;-77
2022/02/07 05:42:04;;;;;;;;;5.67;2.00;;;;;8.33;60.35;102166.47;5092702;27;45269;-78
2022/02/07 05:44:30;;;;;;;;;5.75;1.75;;;;;8.31;60.55;102167.22;5059570;28;47487;-76
2022/02/07 05:46:55;;;;;;;;;6.00;2.00;;;;;8.37;60.57;102184.22;5090384;27;45361;-77
2022/02/07 05:49:23;;;;;;;;;2.75;2.00;;;;;8.35;60.53;102203.38;5095654;27;49052;-76
2022/02/07 05:51:48;;;;;;;;;6.75;2.50;;;;;8.28;60.55;102196.94;5087868;27;45531;-76
2022/02/07 05:54:13;;;;;;;;;3.00;1.00;;;;;8.32;60.56;102213.78;5075742;28;46778;-78
2022/02/07 05:56:39;;;;;;;;;3.00;2.25;;;;;8.28;61.04;102220.63;5092234;27;57754;-77
2022/02/07 05:59:04;;;;;;;;;1.00;1.00;;;;;8.18;61.00;102204.41;5072174;27;55449;-77
2022/02/07 06:01:29;;;;;;;;;7.00;1.25;;;;;8.25;61.03;102217.84;5069811;28;55204;-77
2022/02/07 06:03:55;;;;;;;;;0.00;0.00;;;;;8.25;61.11;102227.50;5074932;28;57080;-76
2022/02/07 06:06:20;;;;;;;;;2.25;1.00;;;;;8.23;61.27;102223.91;5098934;27;56076;-76
2022/02/07 06:08:46;;;;;;;;;2.33;1.00;;;;;8.25;61.19;102227.50;5206334;22;53944;-76
2022/02/07 06:11:12;;;;;;;;;8.50;2.00;;;;;8.23;61.12;102226.53;5058839;28;45174;-77
2022/02/07 06:13:38;;;;;;;;;8.00;3.00;;;;;8.14;61.13;102214.78;5058271;28;45917;-77
2022/02/07 06:16:05;;;;;;;;;7.75;2.00;;;;;8.23;61.11;102235.31;5031024;28;45394;-77
2022/02/07 06:18:31;;;;;;;;;6.00;1.50;;;;;8.23;61.52;102247.59;5069764;28;45379;-77
2022/02/07 06:21:01;;;;;;;;;2.75;1.75;;;;;8.20;61.22;102242.19;5050232;28;45517;-76
2022/02/07 06:23:28;;;;;;;;;5.25;2.00;;;;;8.20;61.62;102256.22;5071081;27;46572;-77
2022/02/07 06:25:57;;;;;;;;;5.50;2.00;;;;;8.18;61.39;102257.00;5041820;28;45286;-79
2022/02/07 06:28:22;;;;;;;;;6.75;1.50;;;;;8.07;61.22;102244.28;5055053;28;45420;-77
2022/02/07 06:30:47;;;;;;;;;6.00;1.00;;;;;8.17;61.71;102257.84;5008595;28;45393;-78
2022/02/07 06:33:13;;;;;;;;;2.75;1.00;;;;;8.14;61.47;102258.59;5074905;28;55134;-80
2022/02/07 06:35:38;;;;;;;;;8.00;3.00;;;;;8.15;61.55;102265.69;5060777;28;57174;-80
2022/02/07 06:38:04;;;;;;;;;2.50;1.50;;;;;8.18;61.48;102275.44;5044272;28;49599;-80
2022/02/07 06:40:29;;;;;;;;;5.00;3.00;;;;;8.15;61.59;102276.22;5044648;28;45666;-80
2022/02/07 06:42:54;;;;;;;;;4.00;2.00;;;;;8.11;61.47;102282.16;5026899;28;60434;-80
2022/02/07 06:45:20;;;;;;;;;3.25;2.75;;;;;8.13;61.60;102291.91;5044046;28;49005;-81
2022/02/07 06:47:45;;;;;;;;;5.75;2.25;;;;;8.07;61.63;102283.75;5060797;28;47500;-80
2022/02/07 06:50:11;;;;;;;;;2.50;2.50;;;;;8.13;61.57;102296.28;5023503;28;45623;-79
2022/02/07 06:52:36;;;;;;;;;6.00;2.75;;;;;7.95;61.90;102269.16;5076041;28;46375;-80
2022/02/07 06:55:01;;;;;;;;;5.75;3.00;;;;;7.89;61.88;102285.56;5060667;28;45252;-80
2022/02/07 06:57:27;;;;;;;;;7.00;3.00;;;;;7.69;62.62;102302.16;5032943;28;50476;-75
2022/02/07 06:59:52;;;;;;;;;7.50;1.50;;;;;7.52;62.98;102304.00;5072538;28;45474;-84
2022/02/07 07:02:20;;;;;;;;;3.00;1.25;;;;;7.27;63.04;102283.53;5026303;28;48356;-80
2022/02/07 07:04:48;;;;;;;;;8.75;2.75;;;;;7.17;63.73;102297.06;5058449;28;45501;-79
2022/02/07 07:07:14;;;;;;;;;3.00;2.00;;;;;7.16;63.84;102295.25;5042690;28;45646;-80
2022/02/07 07:09:43;;;;;;;;;6.00;2.00;;;;;7.12;64.55;102323.09;5054652;28;45357;-79
2022/02/07 07:12:10;;;;;;;;;5.50;2.25;;;;;7.14;64.05;102310.03;5041224;28;46516;-78
2022/02/07 07:14:45;;;;;;;;;5.75;1.50;;;;;7.10;64.03;102301.13;5052816;28;45549;-79
2022/02/07 07:17:11;;;;;;;;;7.00;2.00;;;;;7.24;63.79;102321.06;5074065;28;45394;-78
2022/02/07 07:19:36;;;;;;;;;5.25;2.50;;;;;7.31;63.93;102338.03;5038611;28;45584;-77
2022/02/07 07:22:03;;;;;;;;;6.00;2.00;;;;;7.21;64.55;102327.91;5070330;28;45732;-77
2022/02/07 07:24:29;;;;;;;;;6.00;2.25;;;;;7.11;64.67;102326.56;5040974;28;45601;-79
2022/02/07 07:26:54;;;;;;;;;3.75;2.25;;;;;7.18;64.25;102343.50;5077271;28;50032;-79
2022/02/07 07:29:26;;;;;;;;;4.50;1.75;;;;;7.17;64.22;102342.59;5023593;28;45583;-76
2022/02/07 07:31:56;;;;;;;;;3.00;2.00;;;;;7.19;64.15;102343.59;5042072;28;45446;-76
2022/02/07 07:34:22;;;;;;;;;6.50;2.25;;;;;7.23;64.00;102348.16;5039545;28;45397;-76
2022/02/07 07:36:48;;;;;;;;;8.50;2.75;;;;;7.31;63.77;102356.44;5053283;28;45532;-76
2022/02/07 07:39:14;;;;;;;;;5.00;3.00;;;;;7.41;63.92;102363.03;5049154;28;45678;-77
2022/02/07 07:41:41;;;;;;;;;3.50;3.50;;;;;7.46;63.95;102370.31;5073236;28;46466;-76
2022/02/07 07:44:07;;;;;;;;;6.00;4.00;;;;;7.50;63.95;102381.84;5059571;28;45429;-76
2022/02/07 07:46:32;;;;;;;;;7.50;3.00;;;;;7.60;63.89;102395.50;5037743;28;45418;-77
2022/02/07 07:49:03;;;;;;;;;5.00;5.00;;;;;7.61;63.84;102406.94;5071673;28;45613;-77
2022/02/07 08:02:18;;;;;;;;;5.25;5.25;;;;;7.88;63.72;102436.28;5047305;28;45560;-75
2022/02/07 08:04:45;;;;;;;;;9.25;6.50;;;;;7.92;63.83;102437.31;5068375;28;45421;-76
2022/02/07 08:07:27;;;;;;;;;6.75;6.25;;;;;7.95;63.79;102445.38;5069835;28;45472;-76
2022/02/07 08:12:24;;;;;;;;;10.00;6.00;;;;;8.00;63.77;102455.28;5073522;28;46337;-75
2022/02/07 08:14:50;;;;;;;;;10.00;7.00;;;;;8.00;63.74;102465.81;5058663;28;45438;-76
2022/02/07 08:17:18;;;;;;;;;11.25;6.75;;;;;8.05;63.81;102479.19;5072107;28;45509;-77
2022/02/07 08:19:45;;;;;;;;;18.25;10.50;;;;;8.05;64.02;102466.03;5073568;28;45716;-76
2022/02/07 08:22:11;;;;;;;;;19.00;13.25;;;;;8.06;63.80;102475.72;5025348;28;46528;-76
2022/02/07 08:24:37;;;;;;;;;14.25;8.00;;;;;8.08;63.80;102484.56;5056203;28;52339;-76
2022/02/07 08:27:04;;;;;;;;;11.25;7.00;;;;;8.12;63.67;102500.56;5038123;28;45394;-76
2022/02/07 08:29:29;;;;;;;;;11.25;8.25;;;;;8.07;63.80;102483.66;5038204;28;45539;-76
2022/02/07 08:31:55;;;;;;;;;13.75;11.00;;;;;8.19;63.70;102492.97;5056586;28;59752;-76
2022/02/07 08:34:20;;;;;;;;;17.00;11.75;;;;;8.19;63.78;102496.50;5041279;28;59084;-76
2022/02/07 08:36:45;;;;;;;;;13.25;10.25;;;;;8.25;63.83;102504.69;5075523;28;53235;-77
2022/02/07 08:39:11;;;;;;;;;17.50;11.00;;;;;8.26;63.74;102502.97;5057004;28;46952;-76
2022/02/07 08:41:36;;;;;;;;;8.00;6.50;;;;;8.31;63.47;102506.69;5076377;28;46512;-76
2022/02/07 08:44:02;;;;;;;;;13.75;10.00;;;;;8.17;63.54;102486.75;5049604;27;45473;-76
2022/02/07 08:46:27;;;;;;;;;14.00;10.00;;;;;8.28;63.43;102501.31;5048815;28;45466;-76
2022/02/07 08:48:52;;;;;;;;;11.00;6.25;;;;;8.37;63.68;102507.03;5053700;28;49304;-76
2022/02/07 08:51:20;;;;;;;;;7.00;4.75;;;;;8.42;63.26;102521.31;5053645;28;45850;-76
2022/02/07 08:53:47;;;;;;;;;6.50;3.00;;;;;8.42;63.26;102523.06;5055066;28;45686;-75
2022/02/07 08:56:13;;;;;;;;;16.50;6.25;;;;;8.48;63.26;102528.59;5072495;28;45605;-76
2022/02/07 08:58:42;;;;;;;;;8.25;3.25;;;;;8.51;63.18;102536.63;5055640;28;46297;-77
2022/02/07 09:08:50;;;;;;;;;10.25;7.25;;;;;8.56;63.24;102549.16;5055304;28;45594;-77
2022/02/07 09:11:16;;;;;;;;;9.25;9.25;;;;;8.67;63.08;102565.47;5072002;28;45767;-76
2022/02/07 09:13:44;;;;;;;;;12.25;5.75;;;;;8.69;63.09;102571.72;5071045;28;45523;-76
2022/02/07 09:18:37;;;;;;;;;7.50;6.00;;;;;8.75;62.86;102600.09;5072786;28;45536;-75
2022/02/07 09:21:06;;;;;;;;;6.00;3.25;;;;;8.71;62.98;102592.88;5071684;28;46157;-77
2022/02/07 09:23:31;;;;;;;;;9.00;4.50;;;;;8.78;62.76;102593.19;5049732;28;45525;-76
2022/02/07 09:25:57;;;;;;;;;12.50;5.75;;;;;8.65;62.17;102588.22;5066072;28;45537;-76
2022/02/07 09:28:22;;;;;;;;;8.50;5.75;;;;;8.81;63.06;102614.44;5036444;28;45500;-75
2022/02/07 09:30:48;;;;;;;;;7.00;3.00;;;;;8.84;62.76;102609.31;5053928;28;45474;-76
2022/02/07 09:33:13;;;;;;;;;6.75;3.00;;;;;8.79;62.65;102608.22;5053423;28;45532;-76
2022/02/07 09:35:39;;;;;;;;;8.00;3.50;;;;;8.77;62.72;102614.22;5037705;28;45372;-76
2022/02/07 09:38:04;;;;;;;;;7.75;2.25;;;;;8.85;62.89;102634.81;5049502;28;55925;-76
2022/02/07 09:40:30;;;;;;;;;6.75;4.25;;;;;8.87;62.61;102648.06;5053422;28;46367;-75
2022/02/07 09:42:58;;;;;;;;;12.50;6.00;;;;;8.78;63.01;102637.97;5072112;28;45456;-75
2022/02/07 09:45:32;;;;;;;;;8.00;5.50;;;;;8.81;62.47;102655.69;5072418;28;45738;-75
2022/02/07 09:47:58;;;;;;;;;10.00;6.75;;;;;8.93;62.71;102679.94;5021061;28;45456;-76
2022/02/07 09:50:24;;;;;;;;;7.75;4.50;;;;;8.90;62.77;102661.38;5053111;28;46425;-77
2022/02/07 09:52:49;;;;;;;;;8.50;6.25;;;;;9.03;62.78;102686.56;5051142;28;45336;-77
2022/02/07 09:55:14;;;;;;;;;14.25;7.00;;;;;9.07;62.87;102683.25;5054000;28;54522;-76
2022/02/07 09:57:40;;;;;;;;;2.00;2.00;;;;;9.10;62.66;102686.00;5059739;28;52388;-78
2022/02/07 10:00:08;;;;;;;;;4.00;3.00;;;;;9.14;62.59;102688.88;5026197;28;47402;-76
2022/02/07 10:02:45;;;;;;;;;10.25;6.00;;;;;9.12;62.46;102677.38;5036961;28;47011;-77
2022/02/07 10:05:20;;;;;;;;;9.00;4.00;;;;;9.26;62.66;102703.44;5029860;28;45504;-77
2022/02/07 10:08:04;;;;;;;;;9.00;1.75;;;;;9.29;62.15;102717.69;5054215;28;45540;-75
2022/02/07 10:10:54;;;;;;;;;8.33;2.67;;;;;9.34;62.42;102721.44;5073342;28;46738;-75
2022/02/07 10:18:22;;;;;;;;;7.50;4.00;;;;;9.44;62.50;102717.50;5042269;28;45618;-76
2022/02/07 10:39:57;;;;;;;;;4.00;3.00;;;;;9.82;61.90;102735.03;5033765;28;45652;-76
2022/02/07 10:44:59;;;;;;;;;6.67;4.00;;;;;9.93;61.79;102722.31;5057344;28;45439;-75
2022/02/07 10:47:29;;;;;;;;;8.00;3.00;;;;;10.01;61.96;102728.81;5025094;28;46077;-76
2022/02/07 10:50:06;;;;;;;;;4.00;1.00;;;;;10.06;61.20;102739.56;5041855;28;46208;-74
2022/02/07 10:52:51;;;;;;;;;2.33;1.33;;;;;10.09;61.00;102730.06;5075850;28;46313;-74
2022/02/07 10:55:26;;;;;;;;;4.67;1.00;;;;;10.14;60.26;102732.91;5070159;28;45545;-75
2022/02/07 10:57:53;;;;;;;;;3.67;1.00;;;;;10.14;60.90;102732.91;5073741;28;45439;-74
2022/02/07 11:00:25;;;;;;;;;4.00;1.00;;;;;10.16;59.69;102718.03;5075750;28;45563;-75
2022/02/07 11:05:30;;;;;;;;;8.33;3.00;;;;;10.18;59.79;102722.56;5054202;28;45377;-75
2022/02/07 11:08:06;;;;;;;;;2.33;2.33;;;;;10.29;60.03;102730.97;5074111;28;45554;-77
2022/02/07 11:11:03;;;;;;;;;5.33;1.00;;;;;10.30;59.77;102722.19;5043595;28;45537;-82
2022/02/07 11:16:15;;;;;;;;;3.00;2.00;;;;;10.59;60.04;102733.06;5057631;28;45311;-77
2022/02/07 11:21:38;;;;;;;;;3.00;1.33;;;;;11.04;59.17;102718.19;5041768;28;45317;-77
2022/02/07 11:27:41;;;;;;;;;4.00;2.00;;;;;11.37;58.58;102718.56;5075160;28;45340;-74
2022/02/07 11:30:11;;;;;;;;;4.00;2.00;;;;;11.34;57.68;102699.94;5074262;28;45477;-75
2022/02/07 11:32:43;;;;;;;;;10.00;2.00;;;;;11.36;57.73;102697.38;5055312;28;45420;-75
2022/02/07 11:35:21;;;;;;;;;3.00;2.00;;;;;11.51;58.02;102720.00;5055675;28;47779;-83
2022/02/07 11:38:00;;;;;;;;;2.00;2.00;;;;;11.64;57.93;102723.09;5016860;28;45521;-76
2022/02/07 11:40:28;;;;;;;;;3.00;1.67;;;;;11.82;57.14;102741.41;5076558;28;45285;-76
2022/02/07 11:43:05;;;;;;;;;3.00;1.00;;;;;11.96;57.09;102740.19;5071926;28;45633;-75
2022/02/07 11:45:56;;;;;;;;;3.33;0.67;;;;;12.10;56.64;102744.22;5072969;28;46666;-77
2022/02/07 11:48:39;;;;;;;;;1.00;1.00;;;;;12.24;54.82;102742.03;5060909;28;45505;-76
2022/02/07 11:51:29;;;;;;;;;2.67;1.00;;;;;12.38;55.12;102743.44;5068485;28;45481;-77
2022/02/07 11:53:59;;;;;;;;;3.67;1.00;;;;;12.44;55.00;102735.69;5069543;28;45435;-76
2022/02/07 11:56:45;;;;;;;;;2.33;1.33;;;;;12.62;54.62;102742.44;5042737;28;46849;-76
2022/02/07 11:59:23;;;;;;;;;3.67;1.00;;;;;12.71;54.20;102748.97;5074269;28;45337;-76
2022/02/07 12:01:48;;;;;;;;;10.33;2.00;;;;;12.82;54.32;102746.66;5069103;28;45312;-77
2022/02/07 12:04:43;;;;;;;;;5.00;2.00;;;;;12.85;54.51;102747.66;5051757;28;45585;-76
2022/02/07 12:07:14;;;;;;;;;6.00;2.33;;;;;12.83;53.96;102744.03;5056326;28;47842;-76
2022/02/07 12:12:44;;;;;;;;;2.67;1.33;;;;;12.81;53.88;102736.91;5067594;28;45139;-77
2022/02/07 12:15:16;;;;;;;;;6.33;1.67;;;;;12.78;53.40;102740.38;5069316;28;45386;-77
2022/02/07 12:17:49;;;;;;;;;3.00;2.00;;;;;12.72;53.81;102731.28;5073277;28;46680;-77
2022/02/07 12:20:17;;;;;;;;;5.00;2.00;;;;;12.59;53.35;102722.06;5059481;28;45357;-77
2022/02/07 12:23:04;;;;;;;;;7.33;4.00;;;;;12.54;52.64;102728.97;5039746;28;45526;-77
2022/02/07 12:25:29;;;;;;;;;5.33;2.33;;;;;12.53;53.59;102735.13;5041317;28;45326;-76
2022/02/07 12:27:58;;;;;;;;;6.00;2.00;;;;;12.51;53.31;102735.03;5073166;28;46533;-77
2022/02/07 12:30:32;;;;;;;;;5.00;2.00;;;;;12.46;53.61;102707.47;5047603;28;45264;-76
2022/02/07 12:33:03;;;;;;;;;10.67;2.00;;;;;12.47;51.21;102717.25;5061532;28;45259;-77
2022/02/07 12:35:29;;;;;;;;;2.00;2.00;;;;;12.39;52.36;102715.19;5028442;28;45462;-78
2022/02/07 12:37:54;;;;;;;;;6.00;2.00;;;;;12.36;52.37;102720.38;5057621;28;46237;-78
2022/02/07 12:40:19;;;;;;;;;3.00;2.00;;;;;12.30;52.50;102727.28;5026716;28;45372;-77
2022/02/07 12:42:45;;;;;;;;;3.00;1.33;;;;;12.28;51.78;102734.25;5039095;28;45660;-77
2022/02/07 12:45:10;;;;;;;;;3.00;1.00;;;;;12.21;51.51;102736.66;5022582;28;45523;-77
2022/02/07 12:47:38;;;;;;;;;3.67;2.00;;;;;12.15;52.45;102733.81;5051107;28;45728;-77
2022/02/07 12:50:10;;;;;;;;;3.00;0.00;;;;;12.06;51.45;102732.63;5036780;28;45317;-77
2022/02/07 12:52:36;;;;;;;;;3.00;3.00;;;;;12.06;52.55;102737.03;5039772;28;45237;-77
2022/02/07 12:55:03;;;;;;;;;3.00;2.00;;;;;12.08;52.01;102732.66;5039349;28;45518;-76
2022/02/07 12:57:33;;;;;;;;;2.33;1.00;;;;;12.12;52.38;102738.97;5048130;28;45720;-75
2022/02/07 12:59:58;;;;;;;;;9.67;3.00;;;;;12.12;52.13;102731.03;5079437;27;45286;-76
2022/02/07 13:02:27;;;;;;;;;2.00;2.00;;;;;12.09;52.54;102728.25;5075255;28;54265;-75
2022/02/07 13:04:53;;;;;;;;;4.00;2.33;;;;;12.02;52.33;102704.22;5068967;28;45308;-76
2022/02/07 13:07:21;;;;;;;;;6.33;2.00;;;;;12.06;52.07;102723.78;5053437;28;46648;-75
2022/02/07 13:09:53;;;;;;;;;1.67;1.67;;;;;12.00;51.29;102735.06;5057183;28;45430;-76
2022/02/07 13:12:35;;;;;;;;;4.00;1.00;;;;;11.98;51.63;102736.72;5039560;28;45351;-76
2022/02/07 13:15:01;;;;;;;;;2.00;1.00;;;;;11.97;51.09;102737.56;5073558;28;47176;-76
2022/02/07 13:17:27;;;;;;;;;2.00;2.00;;;;;11.97;51.78;102741.97;5040406;28;46292;-76
2022/02/07 13:19:53;;;;;;;;;4.33;3.00;;;;;12.01;52.12;102744.78;5037571;28;45429;-76
2022/02/07 13:22:21;;;;;;;;;4.33;2.67;;;;;11.94;52.16;102721.59;5067782;27;45446;-75
2022/02/07 13:24:47;;;;;;;;;6.00;1.00;;;;;12.03;50.78;102736.91;5051051;28;45447;-75
2022/02/07 13:27:14;;;;;;;;;3.67;2.00;;;;;12.02;51.28;102735.09;5039784;28;46292;-76
2022/02/07 13:29:51;;;;;;;;;1.00;1.00;;;;;11.88;51.38;102715.16;5072027;28;45443;-76
2022/02/07 13:32:18;;;;;;;;;2.00;2.00;;;;;11.95;51.54;102733.09;5065948;28;45523;-76
2022/02/07 13:34:44;;;;;;;;;1.00;1.00;;;;;11.96;51.10;102740.19;5035249;28;45382;-76
2022/02/07 13:37:15;;;;;;;;;3.33;1.67;;;;;11.96;51.33;102753.41;5072396;28;45955;-75
2022/02/07 13:39:49;;;;;;;;;7.33;2.67;;;;;11.97;51.79;102753.47;5066360;28;45462;-76
2022/02/07 13:42:15;;;;;;;;;5.00;2.00;;;;;12.01;49.69;102757.13;5072788;28;45526;-76
2022/02/07 13:44:41;;;;;;;;;5.33;2.67;;;;;12.05;50.71;102746.72;5073234;28;45457;-76
2022/02/07 13:47:07;;;;;;;;;2.00;1.00;;;;;12.02;50.90;102751.00;5055677;28;46935;-75
2022/02/07 13:49:32;;;;;;;;;2.33;0.00;;;;;12.17;51.20;102753.28;5070545;28;45274;-75
2022/02/07 13:51:58;;;;;;;;;2.33;2.00;;;;;12.19;50.88;102752.47;5075344;28;45526;-76
2022/02/07 13:54:30;;;;;;;;;4.00;1.33;;;;;12.21;51.16;102744.59;5049173;28;45471;-75
2022/02/07 13:56:59;;;;;;;;;3.33;1.00;;;;;12.19;50.94;102741.88;5039502;28;47411;-76
2022/02/07 13:59:24;;;;;;;;;4.00;1.00;;;;;12.22;51.10;102757.91;5069617;28;45710;-76
2022/02/07 14:01:51;;;;;;;;;1.33;1.33;;;;;12.18;50.00;102753.34;5070647;28;52333;-76
2022/02/07 14:04:22;;;;;;;;;2.00;1.00;;;;;12.09;49.58;102738.84;5047592;28;45587;-77
2022/02/07 14:07:08;;;;;;;;;2.67;0.67;;;;;11.99;48.51;102729.72;5072542;28;47515;-76
2022/02/07 14:09:33;;;;;;;;;1.00;1.00;;;;;11.94;49.04;102741.88;5053749;28;45533;-76
2022/02/07 14:11:59;;;;;;;;;3.33;1.00;;;;;11.98;48.94;102746.41;5069738;28;53860;-76
2022/02/07 14:14:28;;;;;;;;;6.00;1.00;;;;;11.92;48.31;102754.16;5057036;28;45554;-76
2022/02/07 14:16:53;;;;;;;;;2.33;1.00;;;;;11.85;49.12;102747.72;5068501;28;64530;-76